Time,TemperatureF,DewpointF,PressureIn,WindDirection,WindDirectionDegrees,WindSpeedMPH,WindSpeedGustMPH,Humidity,HourlyPrecipIn,Conditions,Clouds,dailyrainin,SoftwareType,DateUTC
2013-06-16 00:00:00,81.3,74.9,30.04,NW,319,0.0,-999.0,81,0.00,,,0.00,Wunderground v.1.15,2013-06-16 04:00:00,
2013-06-16 00:05:00,81.2,75.2,30.04,NW,319,0.0,-999.0,82,0.00,,,0.00,Wunderground v.1.15,2013-06-16 04:05:00,
2013-06-16 00:10:00,81.0,75.0,30.04,NW,319,0.0,-999.0,82,0.00,,,0.00,Wunderground v.1.15,2013-06-16 04:10:00,
2013-06-16 00:14:00,80.9,75.2,30.04,NW,318,0.0,-999.0,83,0.00,,,0.00,Wunderground v.1.15,2013-06-16 04:14:00,
2013-06-16 00:19:00,80.7,75.8,30.04,NW,319,0.0,-999.0,85,0.00,,,0.00,Wunderground v.1.15,2013-06-16 04:19:00,
2013-06-16 00:24:00,80.6,75.0,30.03,NW,318,0.0,-999.0,83,0.00,,,0.00,Wunderground v.1.15,2013-06-16 04:24:00,
2013-06-16 00:29:00,80.4,75.8,30.03,NW,319,0.0,-999.0,86,0.00,,,0.00,Wunderground v.1.15,2013-06-16 04:29:00,
2013-06-16 00:35:00,80.0,76.1,30.03,NW,319,0.0,-999.0,88,0.00,,,0.00,Wunderground v.1.15,2013-06-16 04:35:00,
2013-06-16 00:40:00,79.2,75.7,30.03,NW,319,0.0,-999.0,89,0.00,,,0.00,Wunderground v.1.15,2013-06-16 04:40:00,
2013-06-16 00:49:00,78.5,76.0,30.03,NW,318,0.0,-999.0,92,0.00,,,0.00,Wunderground v.1.15,2013-06-16 04:49:00,
2013-06-16 00:54:00,78.3,76.1,30.03,NW,319,0.0,-999.0,93,0.00,,,0.01,Wunderground v.1.15,2013-06-16 04:54:00,
2013-06-16 00:59:00,78.1,75.9,30.03,NW,319,0.0,-999.0,93,0.00,,,0.01,Wunderground v.1.15,2013-06-16 04:59:00,
2013-06-16 01:05:00,78.0,75.8,30.03,NW,318,0.0,-999.0,93,0.00,,,0.01,Wunderground v.1.15,2013-06-16 05:05:00,
2013-06-16 01:15:00,77.5,75.3,30.03,NW,319,0.0,-999.0,93,0.00,,,0.01,Wunderground v.1.15,2013-06-16 05:15:00,
2013-06-16 01:25:00,77.2,75.3,30.04,NW,319,0.0,-999.0,94,0.00,,,0.01,Wunderground v.1.15,2013-06-16 05:25:00,
2013-06-16 01:30:00,77.1,75.2,30.04,NW,318,0.0,-999.0,94,0.00,,,0.01,Wunderground v.1.15,2013-06-16 05:30:00,
2013-06-16 01:35:00,77.0,74.8,30.04,NW,318,0.0,-999.0,93,0.00,,,0.01,Wunderground v.1.15,2013-06-16 05:35:00,
2013-06-16 01:40:00,76.9,75.0,30.04,NW,319,0.0,-999.0,94,0.00,,,0.01,Wunderground v.1.15,2013-06-16 05:40:00,
2013-06-16 01:45:00,76.9,75.0,30.04,NW,318,0.0,-999.0,94,0.00,,,0.01,Wunderground v.1.15,2013-06-16 05:45:00,
2013-06-16 01:50:00,76.8,75.3,30.03,NW,319,0.0,-999.0,95,0.00,,,0.01,Wunderground v.1.15,2013-06-16 05:50:00,
2013-06-16 02:00:00,76.8,74.9,30.03,NW,319,0.0,-999.0,94,0.00,,,0.01,Wunderground v.1.15,2013-06-16 06:00:00,
2013-06-16 02:05:00,76.8,75.3,30.03,NW,319,0.0,-999.0,95,0.00,,,0.01,Wunderground v.1.15,2013-06-16 06:05:00,
2013-06-16 02:10:00,76.7,74.8,30.03,NW,318,0.0,-999.0,94,0.00,,,0.01,Wunderground v.1.15,2013-06-16 06:10:00,
2013-06-16 02:15:00,76.7,74.8,30.03,NW,319,0.0,-999.0,94,0.00,,,0.01,Wunderground v.1.15,2013-06-16 06:15:00,
2013-06-16 02:20:00,76.6,75.1,30.03,NW,318,0.0,-999.0,95,0.00,,,0.01,Wunderground v.1.15,2013-06-16 06:20:00,
2013-06-16 02:25:00,76.6,75.1,30.03,NW,319,0.0,-999.0,95,0.00,,,0.01,Wunderground v.1.15,2013-06-16 06:25:00,
2013-06-16 02:35:00,76.9,75.7,30.03,NW,318,0.0,-999.0,96,0.00,,,0.01,Wunderground v.1.15,2013-06-16 06:35:00,
2013-06-16 02:40:00,77.0,75.8,30.03,NW,319,0.0,-999.0,96,0.00,,,0.01,Wunderground v.1.15,2013-06-16 06:40:00,
2013-06-16 02:45:00,77.2,76.0,30.02,NW,318,0.0,-999.0,96,0.00,,,0.01,Wunderground v.1.15,2013-06-16 06:45:00,
2013-06-16 02:50:00,77.2,76.0,30.02,NW,319,0.0,-999.0,96,0.00,,,0.01,Wunderground v.1.15,2013-06-16 06:50:00,
2013-06-16 03:00:00,77.3,76.1,30.02,NW,319,0.0,-999.0,96,0.00,,,0.01,Wunderground v.1.15,2013-06-16 07:00:00,
2013-06-16 03:10:00,76.9,75.4,30.02,NW,319,0.0,-999.0,95,0.00,,,0.01,Wunderground v.1.15,2013-06-16 07:10:00,
2013-06-16 03:15:00,76.7,75.2,30.02,NW,318,0.0,-999.0,95,0.00,,,0.01,Wunderground v.1.15,2013-06-16 07:15:00,
2013-06-16 03:20:00,76.5,75.0,30.02,NW,319,0.0,-999.0,95,0.00,,,0.01,Wunderground v.1.15,2013-06-16 07:20:00,
2013-06-16 03:25:00,76.5,75.3,30.02,NW,319,0.0,-999.0,96,0.00,,,0.01,Wunderground v.1.15,2013-06-16 07:25:00,
2013-06-16 03:30:00,76.5,75.3,30.02,NW,319,0.0,-999.0,96,0.00,,,0.01,Wunderground v.1.15,2013-06-16 07:30:00,
2013-06-16 03:35:00,76.6,75.4,30.02,NE,52,0.0,-999.0,96,0.00,,,0.01,Wunderground v.1.15,2013-06-16 07:35:00,
2013-06-16 03:45:00,76.6,75.1,30.02,NE,53,0.0,-999.0,95,0.00,,,0.01,Wunderground v.1.15,2013-06-16 07:45:00,
2013-06-16 03:50:00,76.7,75.2,30.02,NE,53,0.0,-999.0,95,0.00,,,0.01,Wunderground v.1.15,2013-06-16 07:50:00,
2013-06-16 03:55:00,76.7,75.5,30.01,NE,52,0.0,-999.0,96,0.00,,,0.01,Wunderground v.1.15,2013-06-16 07:55:00,
2013-06-16 04:05:00,76.7,75.5,30.01,NE,53,0.0,-999.0,96,0.00,,,0.01,Wunderground v.1.15,2013-06-16 08:05:00,
2013-06-16 04:15:00,76.6,75.1,30.01,NE,53,0.0,-999.0,95,0.00,,,0.01,Wunderground v.1.15,2013-06-16 08:15:00,
2013-06-16 04:20:00,76.4,74.9,30.01,NE,53,0.0,-999.0,95,0.00,,,0.01,Wunderground v.1.15,2013-06-16 08:20:00,
2013-06-16 04:25:00,76.3,75.1,30.02,NE,53,0.0,-999.0,96,0.00,,,0.01,Wunderground v.1.15,2013-06-16 08:25:00,
2013-06-16 04:30:00,76.3,75.1,30.02,NE,52,0.0,-999.0,96,0.00,,,0.01,Wunderground v.1.15,2013-06-16 08:30:00,
2013-06-16 04:40:00,76.2,74.7,30.02,NE,53,0.0,-999.0,95,0.00,,,0.01,Wunderground v.1.15,2013-06-16 08:40:00,
2013-06-16 04:45:00,76.2,75.0,30.01,NE,52,0.0,-999.0,96,0.00,,,0.01,Wunderground v.1.15,2013-06-16 08:45:00,
2013-06-16 04:50:00,76.5,75.3,30.02,NE,53,0.0,-999.0,96,0.00,,,0.01,Wunderground v.1.15,2013-06-16 08:50:00,
2013-06-16 04:55:00,76.6,75.4,30.02,NE,53,0.0,-999.0,96,0.00,,,0.01,Wunderground v.1.15,2013-06-16 08:55:00,
2013-06-16 05:00:00,76.6,75.4,30.02,NE,52,0.0,-999.0,96,0.00,,,0.01,Wunderground v.1.15,2013-06-16 09:00:00,
2013-06-16 05:05:00,76.7,75.5,30.02,NE,53,0.0,-999.0,96,0.00,,,0.01,Wunderground v.1.15,2013-06-16 09:05:00,
2013-06-16 05:10:00,76.6,75.4,30.02,NE,52,0.0,-999.0,96,0.00,,,0.01,Wunderground v.1.15,2013-06-16 09:10:00,
2013-06-16 05:15:00,76.6,75.4,30.02,NE,52,0.0,-999.0,96,0.00,,,0.01,Wunderground v.1.15,2013-06-16 09:15:00,
2013-06-16 05:20:00,76.5,75.3,30.02,NE,53,0.0,-999.0,96,0.00,,,0.01,Wunderground v.1.15,2013-06-16 09:20:00,
2013-06-16 05:30:00,76.5,75.3,30.03,NE,53,0.0,-999.0,96,0.00,,,0.01,Wunderground v.1.15,2013-06-16 09:30:00,
2013-06-16 05:35:00,76.6,75.4,30.02,NE,53,0.0,-999.0,96,0.00,,,0.01,Wunderground v.1.15,2013-06-16 09:35:00,
2013-06-16 05:40:00,76.8,75.6,30.03,NE,54,0.0,-999.0,96,0.00,,,0.01,Wunderground v.1.15,2013-06-16 09:40:00,
2013-06-16 05:50:00,76.7,75.2,30.03,NE,54,0.0,-999.0,95,0.00,,,0.01,Wunderground v.1.15,2013-06-16 09:50:00,
2013-06-16 05:55:00,76.6,75.1,30.03,NE,54,0.0,-999.0,95,0.00,,,0.01,Wunderground v.1.15,2013-06-16 09:55:00,
2013-06-16 06:00:00,76.5,75.0,30.03,NE,54,0.0,-999.0,95,0.00,,,0.01,Wunderground v.1.15,2013-06-16 10:00:00,
2013-06-16 06:05:00,76.4,74.9,30.03,NE,54,0.0,-999.0,95,0.00,,,0.01,Wunderground v.1.15,2013-06-16 10:05:00,
2013-06-16 06:10:00,76.4,75.2,30.03,NE,54,0.0,-999.0,96,0.00,,,0.01,Wunderground v.1.15,2013-06-16 10:10:00,
2013-06-16 06:15:00,76.3,74.8,30.03,NE,53,0.0,-999.0,95,0.00,,,0.01,Wunderground v.1.15,2013-06-16 10:15:00,
2013-06-16 06:20:00,76.2,74.7,30.03,NE,53,0.0,-999.0,95,0.00,,,0.01,Wunderground v.1.15,2013-06-16 10:20:00,
2013-06-16 06:30:00,76.2,75.0,30.03,NE,54,0.0,-999.0,96,0.00,,,0.01,Wunderground v.1.15,2013-06-16 10:30:00,
2013-06-16 06:35:00,76.2,75.0,30.03,NE,54,0.0,-999.0,96,0.00,,,0.01,Wunderground v.1.15,2013-06-16 10:35:00,
2013-06-16 06:40:00,76.4,75.2,30.03,NE,55,0.0,-999.0,96,0.00,,,0.01,Wunderground v.1.15,2013-06-16 10:40:00,
2013-06-16 06:45:00,76.5,75.3,30.04,NE,55,0.0,-999.0,96,0.00,,,0.01,Wunderground v.1.15,2013-06-16 10:45:00,
2013-06-16 06:50:00,76.5,75.3,30.04,NE,55,0.0,-999.0,96,0.00,,,0.01,Wunderground v.1.15,2013-06-16 10:50:00,
2013-06-16 06:55:00,76.6,75.4,30.04,NE,55,0.0,-999.0,96,0.00,,,0.01,Wunderground v.1.15,2013-06-16 10:55:00,
2013-06-16 07:05:00,76.9,75.7,30.04,ENE,63,0.0,-999.0,96,0.00,,,0.01,Wunderground v.1.15,2013-06-16 11:05:00,
2013-06-16 07:15:00,77.0,75.8,30.04,ENE,64,0.0,-999.0,96,0.00,,,0.01,Wunderground v.1.15,2013-06-16 11:15:00,
2013-06-16 07:20:00,76.9,75.4,30.04,ENE,64,0.0,-999.0,95,0.00,,,0.01,Wunderground v.1.15,2013-06-16 11:20:00,
2013-06-16 07:25:00,77.0,75.8,30.04,ENE,65,0.0,-999.0,96,0.00,,,0.01,Wunderground v.1.15,2013-06-16 11:25:00,
2013-06-16 07:30:00,77.0,75.5,30.04,ENE,67,0.0,-999.0,95,0.00,,,0.01,Wunderground v.1.15,2013-06-16 11:30:00,
2013-06-16 07:40:00,77.2,75.7,30.05,ENE,69,0.0,-999.0,95,0.00,,,0.01,Wunderground v.1.15,2013-06-16 11:40:00,
2013-06-16 07:45:00,77.3,75.8,30.05,ENE,69,0.0,-999.0,95,0.00,,,0.01,Wunderground v.1.15,2013-06-16 11:45:00,
2013-06-16 07:50:00,77.5,76.0,30.05,ENE,71,0.0,-999.0,95,0.00,,,0.01,Wunderground v.1.15,2013-06-16 11:50:00,
2013-06-16 07:55:00,77.8,75.9,30.05,ENE,78,0.0,-999.0,94,0.00,,,0.01,Wunderground v.1.15,2013-06-16 11:55:00,
2013-06-16 08:00:00,78.1,75.9,30.06,ENE,75,0.0,-999.0,93,0.00,,,0.01,Wunderground v.1.15,2013-06-16 12:00:00,
2013-06-16 08:10:00,78.5,76.0,30.06,ENE,68,0.0,-999.0,92,0.00,,,0.01,Wunderground v.1.15,2013-06-16 12:10:00,
2013-06-16 08:20:00,79.0,76.1,30.06,ENE,71,0.0,-999.0,91,0.00,,,0.01,Wunderground v.1.15,2013-06-16 12:20:00,
2013-06-16 08:25:00,79.2,76.3,30.06,ENE,72,0.0,-999.0,91,0.00,,,0.01,Wunderground v.1.15,2013-06-16 12:25:00,
2013-06-16 08:30:00,79.3,76.4,30.06,ENE,65,0.0,-999.0,91,0.00,,,0.01,Wunderground v.1.15,2013-06-16 12:30:00,
2013-06-16 08:35:00,79.7,76.8,30.06,ENE,67,0.0,-999.0,91,0.00,,,0.01,Wunderground v.1.15,2013-06-16 12:35:00,
2013-06-16 08:40:00,80.0,76.8,30.06,ENE,70,0.0,-999.0,90,0.00,,,0.01,Wunderground v.1.15,2013-06-16 12:40:00,
2013-06-16 08:45:00,80.3,77.1,30.07,ENE,71,0.0,-999.0,90,0.00,,,0.01,Wunderground v.1.15,2013-06-16 12:45:00,
2013-06-16 08:50:00,80.6,77.1,30.07,ENE,72,0.0,-999.0,89,0.00,,,0.01,Wunderground v.1.15,2013-06-16 12:50:00,
2013-06-16 08:55:00,80.7,76.8,30.07,ENE,74,0.0,-999.0,88,0.00,,,0.01,Wunderground v.1.15,2013-06-16 12:55:00,
2013-06-16 09:00:00,80.8,76.9,30.07,ENE,68,0.0,-999.0,88,0.00,,,0.01,Wunderground v.1.15,2013-06-16 13:00:00,
2013-06-16 09:10:00,81.1,76.9,30.07,ENE,73,0.0,-999.0,87,0.00,,,0.01,Wunderground v.1.15,2013-06-16 13:10:00,
2013-06-16 09:15:00,81.1,76.9,30.07,ENE,71,0.0,-999.0,87,0.00,,,0.01,Wunderground v.1.15,2013-06-16 13:15:00,
2013-06-16 09:20:00,81.0,77.1,30.07,ENE,77,0.0,-999.0,88,0.00,,,0.01,Wunderground v.1.15,2013-06-16 13:20:00,
2013-06-16 09:25:00,81.1,77.2,30.07,ENE,71,0.0,-999.0,88,0.00,,,0.01,Wunderground v.1.15,2013-06-16 13:25:00,
2013-06-16 09:35:00,81.4,76.8,30.07,ENE,72,0.0,-999.0,86,0.00,,,0.01,Wunderground v.1.15,2013-06-16 13:35:00,
2013-06-16 09:40:00,81.6,77.0,30.07,ENE,69,0.0,-999.0,86,0.00,,,0.01,Wunderground v.1.15,2013-06-16 13:40:00,
2013-06-16 09:45:00,82.0,77.4,30.07,ENE,69,0.0,-999.0,86,0.00,,,0.01,Wunderground v.1.15,2013-06-16 13:45:00,
2013-06-16 09:50:00,82.4,77.4,30.07,ENE,75,0.0,-999.0,85,0.00,,,0.01,Wunderground v.1.15,2013-06-16 13:50:00,
2013-06-16 09:55:00,82.7,77.7,30.07,ENE,69,0.0,-999.0,85,0.00,,,0.01,Wunderground v.1.15,2013-06-16 13:55:00,
2013-06-16 10:00:00,82.9,77.6,30.07,ENE,78,0.0,-999.0,84,0.00,,,0.01,Wunderground v.1.15,2013-06-16 14:00:00,
2013-06-16 10:10:00,83.4,77.7,30.07,ENE,72,0.0,-999.0,83,0.00,,,0.01,Wunderground v.1.15,2013-06-16 14:10:00,
2013-06-16 10:15:00,83.7,78.0,30.07,ENE,71,0.0,-999.0,83,0.00,,,0.01,Wunderground v.1.15,2013-06-16 14:15:00,
2013-06-16 10:20:00,83.9,77.4,30.06,ENE,68,0.0,-999.0,81,0.00,,,0.01,Wunderground v.1.15,2013-06-16 14:20:00,
2013-06-16 10:25:00,84.2,77.4,30.06,ENE,68,0.0,-999.0,80,0.00,,,0.01,Wunderground v.1.15,2013-06-16 14:25:00,
2013-06-16 10:30:00,84.5,78.4,30.06,ENE,69,0.0,-999.0,82,0.00,,,0.01,Wunderground v.1.15,2013-06-16 14:30:00,
2013-06-16 10:35:00,84.8,77.9,30.06,ENE,69,0.0,-999.0,80,0.00,,,0.01,Wunderground v.1.15,2013-06-16 14:35:00,
2013-06-16 10:45:00,85.5,78.6,30.06,East,82,0.0,-999.0,80,0.00,,,0.01,Wunderground v.1.15,2013-06-16 14:45:00,
2013-06-16 10:50:00,85.5,77.1,30.06,East,80,0.0,-999.0,76,0.00,,,0.01,Wunderground v.1.15,2013-06-16 14:50:00,
2013-06-16 10:55:00,85.6,77.6,30.06,East,79,0.0,-999.0,77,0.00,,,0.01,Wunderground v.1.15,2013-06-16 14:55:00,
2013-06-16 11:00:00,85.7,77.3,30.06,ENE,78,0.0,-999.0,76,0.00,,,0.01,Wunderground v.1.15,2013-06-16 15:00:00,
2013-06-16 11:05:00,86.1,77.2,30.06,ENE,78,0.0,-999.0,75,0.00,,,0.01,Wunderground v.1.15,2013-06-16 15:05:00,
2013-06-16 11:15:00,87.2,77.9,30.06,ENE,78,0.0,-999.0,74,0.00,,,0.01,Wunderground v.1.15,2013-06-16 15:15:00,
2013-06-16 11:20:00,87.6,77.0,30.06,ENE,76,0.0,-999.0,71,0.00,,,0.01,Wunderground v.1.15,2013-06-16 15:20:00,
2013-06-16 11:25:00,87.5,76.5,30.06,ENE,74,0.0,-999.0,70,0.00,,,0.01,Wunderground v.1.15,2013-06-16 15:25:00,
2013-06-16 11:30:00,87.9,76.0,30.06,ENE,74,0.0,-999.0,68,0.00,,,0.01,Wunderground v.1.15,2013-06-16 15:30:00,
2013-06-16 11:35:00,88.0,76.5,30.06,ENE,74,0.0,-999.0,69,0.00,,,0.01,Wunderground v.1.15,2013-06-16 15:35:00,
2013-06-16 11:45:00,88.2,76.3,30.06,ENE,75,0.0,-999.0,68,0.00,,,0.01,Wunderground v.1.15,2013-06-16 15:45:00,
2013-06-16 11:50:00,88.3,76.8,30.06,ENE,72,0.0,-999.0,69,0.00,,,0.01,Wunderground v.1.15,2013-06-16 15:50:00,
2013-06-16 11:55:00,88.6,76.2,30.06,East,84,0.0,-999.0,67,0.00,,,0.01,Wunderground v.1.15,2013-06-16 15:55:00,
2013-06-16 12:00:00,88.7,76.3,30.06,East,79,0.0,-999.0,67,0.00,,,0.01,Wunderground v.1.15,2013-06-16 16:00:00,
2013-06-16 12:05:00,88.7,75.9,30.06,ENE,77,0.0,-999.0,66,0.00,,,0.01,Wunderground v.1.15,2013-06-16 16:05:00,
2013-06-16 12:10:00,88.6,75.3,30.06,ENE,76,0.0,-999.0,65,0.00,,,0.01,Wunderground v.1.15,2013-06-16 16:10:00,
2013-06-16 12:15:00,88.8,75.5,30.06,ENE,72,0.0,-999.0,65,0.00,,,0.01,Wunderground v.1.15,2013-06-16 16:15:00,
2013-06-16 12:20:00,88.9,75.6,30.06,ENE,72,0.0,-999.0,65,0.00,,,0.01,Wunderground v.1.15,2013-06-16 16:20:00,
2013-06-16 12:30:00,88.5,76.1,30.05,East,84,0.0,-999.0,67,0.00,,,0.01,Wunderground v.1.15,2013-06-16 16:30:00,
2013-06-16 12:35:00,88.5,76.6,30.06,East,83,0.0,-999.0,68,0.00,,,0.01,Wunderground v.1.15,2013-06-16 16:35:00,
2013-06-16 12:40:00,88.6,75.8,30.05,East,84,0.0,-999.0,66,0.00,,,0.01,Wunderground v.1.15,2013-06-16 16:40:00,
2013-06-16 12:45:00,88.7,76.8,30.05,East,80,0.0,-999.0,68,0.00,,,0.01,Wunderground v.1.15,2013-06-16 16:45:00,
2013-06-16 12:50:00,88.9,77.0,30.05,East,87,0.0,-999.0,68,0.00,,,0.01,Wunderground v.1.15,2013-06-16 16:50:00,
2013-06-16 12:55:00,88.9,75.6,30.05,East,87,0.0,-999.0,65,0.00,,,0.01,Wunderground v.1.15,2013-06-16 16:55:00,
2013-06-16 13:05:00,89.7,75.4,30.05,East,82,0.0,-999.0,63,0.00,,,0.01,Wunderground v.1.15,2013-06-16 17:05:00,
2013-06-16 13:10:00,89.6,74.9,30.05,East,83,0.0,-999.0,62,0.00,,,0.01,Wunderground v.1.15,2013-06-16 17:10:00,
2013-06-16 13:15:00,89.7,75.4,30.05,East,79,0.0,-999.0,63,0.00,,,0.01,Wunderground v.1.15,2013-06-16 17:15:00,
2013-06-16 13:20:00,90.1,75.3,30.05,ENE,78,0.0,-999.0,62,0.00,,,0.01,Wunderground v.1.15,2013-06-16 17:20:00,
2013-06-16 13:30:00,90.3,75.5,30.05,East,96,0.0,-999.0,62,0.00,,,0.01,Wunderground v.1.15,2013-06-16 17:30:00,
2013-06-16 13:40:00,90.1,75.3,30.05,East,80,0.0,-999.0,62,0.00,,,0.01,Wunderground v.1.15,2013-06-16 17:40:00,
2013-06-16 13:45:00,90.4,75.1,30.04,East,92,0.0,-999.0,61,0.00,,,0.01,Wunderground v.1.15,2013-06-16 17:45:00,
2013-06-16 13:50:00,90.6,77.2,30.05,East,79,0.0,-999.0,65,0.00,,,0.01,Wunderground v.1.15,2013-06-16 17:50:00,
2013-06-16 13:55:00,90.6,75.3,30.04,ESE,121,0.0,-999.0,61,0.00,,,0.01,Wunderground v.1.15,2013-06-16 17:55:00,
2013-06-16 14:05:00,90.8,75.0,30.04,ESE,107,0.0,-999.0,60,0.00,,,0.01,Wunderground v.1.15,2013-06-16 18:05:00,
2013-06-16 14:10:00,90.8,74.5,30.04,SE,140,0.0,-999.0,59,0.00,,,0.01,Wunderground v.1.15,2013-06-16 18:10:00,
2013-06-16 14:20:00,91.0,75.7,30.04,ESE,107,0.0,-999.0,61,0.00,,,0.01,Wunderground v.1.15,2013-06-16 18:20:00,
2013-06-16 14:25:00,91.1,75.8,30.04,SE,133,0.0,-999.0,61,0.00,,,0.01,Wunderground v.1.15,2013-06-16 18:25:00,
2013-06-16 14:30:00,91.2,74.9,30.04,SSE,156,0.0,-999.0,59,0.00,,,0.01,Wunderground v.1.15,2013-06-16 18:30:00,
2013-06-16 14:40:00,91.2,75.4,30.04,East,100,0.0,-999.0,60,0.00,,,0.01,Wunderground v.1.15,2013-06-16 18:40:00,
2013-06-16 14:45:00,90.4,74.6,30.04,WSW,246,0.0,-999.0,60,0.00,,,0.01,Wunderground v.1.15,2013-06-16 18:45:00,
2013-06-16 14:55:00,90.0,77.1,30.03,NW,317,0.0,-999.0,66,0.00,,,0.01,Wunderground v.1.15,2013-06-16 18:55:00,
2013-06-16 15:00:00,89.7,76.8,30.03,NW,315,0.0,-999.0,66,0.00,,,0.01,Wunderground v.1.15,2013-06-16 19:00:00,
2013-06-16 15:05:00,90.0,77.6,30.03,NW,313,0.0,-999.0,67,0.00,,,0.01,Wunderground v.1.15,2013-06-16 19:05:00,
2013-06-16 15:10:00,90.2,77.8,30.03,NW,304,0.0,-999.0,67,0.00,,,0.01,Wunderground v.1.15,2013-06-16 19:10:00,
2013-06-16 15:15:00,90.1,77.2,30.02,NW,313,0.0,-999.0,66,0.00,,,0.01,Wunderground v.1.15,2013-06-16 19:15:00,
2013-06-16 15:20:00,89.9,76.6,30.03,NW,317,0.0,-999.0,65,0.00,,,0.01,Wunderground v.1.15,2013-06-16 19:20:00,
2013-06-16 15:30:00,88.3,75.9,30.03,East,95,0.0,-999.0,67,0.00,,,0.01,Wunderground v.1.15,2013-06-16 19:30:00,
2013-06-16 15:35:00,85.8,76.5,30.03,East,84,0.0,-999.0,74,0.00,,,0.01,Wunderground v.1.15,2013-06-16 19:35:00,
2013-06-16 15:40:00,82.9,75.7,30.03,East,84,0.0,-999.0,79,0.00,,,0.02,Wunderground v.1.15,2013-06-16 19:40:00,
2013-06-16 15:45:00,81.0,76.1,30.04,ESE,105,0.0,-999.0,85,0.17,,,0.03,Wunderground v.1.15,2013-06-16 19:45:00,
2013-06-16 15:50:00,79.8,75.6,30.04,South,173,0.0,-999.0,87,0.23,,,0.05,Wunderground v.1.15,2013-06-16 19:50:00,
2013-06-16 16:00:00,78.8,75.3,30.05,ESE,123,0.0,-999.0,89,4.09,,,0.54,Wunderground v.1.15,2013-06-16 20:00:00,
2013-06-16 16:05:00,78.0,74.2,30.03,SW,234,0.0,-999.0,88,6.00,,,0.82,Wunderground v.1.15,2013-06-16 20:05:00,
2013-06-16 16:10:00,77.3,74.5,30.03,SSW,199,0.0,-999.0,91,1.57,,,1.00,Wunderground v.1.15,2013-06-16 20:10:00,
2013-06-16 16:15:00,77.3,74.5,30.03,WSW,241,0.0,-999.0,91,1.64,,,1.16,Wunderground v.1.15,2013-06-16 20:15:00,
2013-06-16 16:25:00,76.8,74.6,30.03,WSW,242,0.0,-999.0,93,0.39,,,1.27,Wunderground v.1.15,2013-06-16 20:25:00,
2013-06-16 16:30:00,76.7,74.5,30.03,WSW,248,0.0,-999.0,93,0.20,,,1.29,Wunderground v.1.15,2013-06-16 20:30:00,
2013-06-16 16:35:00,76.7,74.8,30.03,WSW,258,0.0,-999.0,94,0.09,,,1.29,Wunderground v.1.15,2013-06-16 20:35:00,
2013-06-16 16:40:00,77.1,75.2,30.02,WSW,257,0.0,-999.0,94,0.05,,,1.29,Wunderground v.1.15,2013-06-16 20:40:00,
2013-06-16 16:45:00,77.3,75.1,30.02,WSW,244,0.0,-999.0,93,0.04,,,1.29,Wunderground v.1.15,2013-06-16 20:45:00,
2013-06-16 16:50:00,77.7,75.5,30.02,WSW,244,0.0,-999.0,93,0.00,,,1.29,Wunderground v.1.15,2013-06-16 20:50:00,
2013-06-16 16:55:00,78.0,75.5,30.02,WSW,244,0.0,-999.0,92,0.00,,,1.29,Wunderground v.1.15,2013-06-16 20:55:00,
2013-06-16 17:00:00,78.6,76.4,30.01,WSW,244,0.0,-999.0,93,0.00,,,1.29,Wunderground v.1.15,2013-06-16 21:00:00,
2013-06-16 17:05:00,79.1,76.9,30.01,WSW,244,0.0,-999.0,93,0.00,,,1.29,Wunderground v.1.15,2013-06-16 21:05:00,
2013-06-16 17:15:00,80.5,76.3,30.01,WSW,244,0.0,-999.0,87,0.00,,,1.29,Wunderground v.1.15,2013-06-16 21:15:00,
2013-06-16 17:20:00,81.1,75.8,30.01,WSW,244,0.0,-999.0,84,0.00,,,1.29,Wunderground v.1.15,2013-06-16 21:20:00,
2013-06-16 17:25:00,81.6,76.3,30.01,WSW,244,0.0,-999.0,84,0.00,,,1.29,Wunderground v.1.15,2013-06-16 21:25:00,
2013-06-16 17:35:00,82.2,76.9,30.01,WSW,244,0.0,-999.0,84,0.00,,,1.29,Wunderground v.1.15,2013-06-16 21:35:00,
2013-06-16 17:40:00,82.4,77.1,30.01,WSW,244,0.0,-999.0,84,0.00,,,1.29,Wunderground v.1.15,2013-06-16 21:40:00,
2013-06-16 17:45:00,82.6,77.3,30.01,WSW,244,0.0,-999.0,84,0.00,,,1.29,Wunderground v.1.15,2013-06-16 21:45:00,
2013-06-16 17:50:00,83.0,78.0,30.01,WSW,244,0.0,-999.0,85,0.00,,,1.29,Wunderground v.1.15,2013-06-16 21:50:00,
2013-06-16 17:55:00,83.7,76.9,30.01,WSW,244,0.0,-999.0,80,0.00,,,1.29,Wunderground v.1.15,2013-06-16 21:55:00,
2013-06-16 18:00:00,84.8,77.2,30.01,WSW,244,0.0,-999.0,78,0.00,,,1.29,Wunderground v.1.15,2013-06-16 22:00:00,
2013-06-16 18:10:00,86.3,78.2,30.01,WSW,241,0.0,-999.0,77,0.00,,,1.29,Wunderground v.1.15,2013-06-16 22:10:00,
2013-06-16 18:15:00,86.8,77.1,30.02,WSW,242,0.0,-999.0,73,0.00,,,1.29,Wunderground v.1.15,2013-06-16 22:15:00,
2013-06-16 18:20:00,87.0,77.3,30.02,SW,234,0.0,-999.0,73,0.00,,,1.29,Wunderground v.1.15,2013-06-16 22:20:00,
2013-06-16 18:25:00,87.1,77.0,30.01,WSW,244,0.0,-999.0,72,0.00,,,1.29,Wunderground v.1.15,2013-06-16 22:25:00,
2013-06-16 18:35:00,86.9,76.4,30.01,WSW,242,0.0,-999.0,71,0.00,,,1.29,Wunderground v.1.15,2013-06-16 22:35:00,
2013-06-16 18:40:00,86.6,76.5,30.01,SW,218,0.0,-999.0,72,0.00,,,1.29,Wunderground v.1.15,2013-06-16 22:40:00,
2013-06-16 18:50:00,86.5,76.4,30.01,WNW,298,0.0,-999.0,72,0.00,,,1.29,Wunderground v.1.15,2013-06-16 22:50:00,
2013-06-16 18:55:00,86.4,76.3,30.01,West,279,0.0,-999.0,72,0.00,,,1.29,Wunderground v.1.15,2013-06-16 22:55:00,
2013-06-16 19:00:00,86.3,75.8,30.01,SW,236,0.0,-999.0,71,0.00,,,1.29,Wunderground v.1.15,2013-06-16 23:00:00,
2013-06-16 19:10:00,86.1,76.4,30.02,NW,310,0.0,-999.0,73,0.00,,,1.29,Wunderground v.1.15,2013-06-16 23:10:00,
2013-06-16 19:15:00,86.0,75.5,30.02,West,280,0.0,-999.0,71,0.00,,,1.29,Wunderground v.1.15,2013-06-16 23:15:00,
2013-06-16 19:20:00,86.0,75.9,30.02,WSW,240,0.0,-999.0,72,0.00,,,1.29,Wunderground v.1.15,2013-06-16 23:20:00,
2013-06-16 19:25:00,85.9,76.2,30.02,WSW,241,0.0,-999.0,73,0.00,,,1.29,Wunderground v.1.15,2013-06-16 23:25:00,
2013-06-16 19:30:00,85.9,76.2,30.01,WSW,237,0.0,-999.0,73,0.00,,,1.29,Wunderground v.1.15,2013-06-16 23:30:00,
2013-06-16 19:35:00,85.7,76.0,30.01,WSW,240,0.0,-999.0,73,0.00,,,1.29,Wunderground v.1.15,2013-06-16 23:35:00,
2013-06-16 19:40:00,85.6,75.5,30.01,WSW,239,0.0,-999.0,72,0.00,,,1.29,Wunderground v.1.15,2013-06-16 23:40:00,
2013-06-16 19:50:00,85.3,76.1,30.01,WSW,240,0.0,-999.0,74,0.00,,,1.29,Wunderground v.1.15,2013-06-16 23:50:00,
2013-06-16 19:55:00,85.1,75.9,30.02,WSW,240,0.0,-999.0,74,0.00,,,1.29,Wunderground v.1.15,2013-06-16 23:55:00,
2013-06-16 20:00:00,85.0,76.2,30.02,WSW,242,0.0,-999.0,75,0.00,,,1.29,Wunderground v.1.15,2013-06-17 00:00:00,
2013-06-16 20:05:00,84.7,76.3,30.02,WSW,242,0.0,-999.0,76,0.00,,,1.29,Wunderground v.1.15,2013-06-17 00:05:00,
2013-06-16 20:10:00,84.6,76.2,30.02,WSW,244,0.0,-999.0,76,0.00,,,1.29,Wunderground v.1.15,2013-06-17 00:10:00,
2013-06-16 20:15:00,84.4,76.0,30.02,WNW,301,0.0,-999.0,76,0.00,,,1.29,Wunderground v.1.15,2013-06-17 00:15:00,
2013-06-16 20:25:00,84.0,76.0,30.02,WNW,300,0.0,-999.0,77,0.00,,,1.29,Wunderground v.1.15,2013-06-17 00:25:00,
2013-06-16 20:30:00,83.9,75.9,30.02,WNW,301,0.0,-999.0,77,0.00,,,1.29,Wunderground v.1.15,2013-06-17 00:30:00,
2013-06-16 20:35:00,83.7,75.7,30.02,WNW,301,0.0,-999.0,77,0.00,,,1.30,Wunderground v.1.15,2013-06-17 00:35:00,
2013-06-16 20:40:00,83.5,75.5,30.02,WNW,301,0.0,-999.0,77,0.00,,,1.30,Wunderground v.1.15,2013-06-17 00:40:00,
2013-06-16 20:45:00,83.4,75.4,30.02,WNW,302,0.0,-999.0,77,0.00,,,1.30,Wunderground v.1.15,2013-06-17 00:45:00,
2013-06-16 20:55:00,83.2,75.6,30.03,WNW,303,0.0,-999.0,78,0.00,,,1.30,Wunderground v.1.15,2013-06-17 00:55:00,
2013-06-16 21:00:00,83.1,75.9,30.03,WNW,303,0.0,-999.0,79,0.00,,,1.30,Wunderground v.1.15,2013-06-17 01:00:00,
2013-06-16 21:05:00,83.0,75.8,30.03,WNW,303,0.0,-999.0,79,0.00,,,1.30,Wunderground v.1.15,2013-06-17 01:05:00,
2013-06-16 21:10:00,82.9,75.7,30.03,NW,304,0.0,-999.0,79,0.00,,,1.30,Wunderground v.1.15,2013-06-17 01:10:00,
2013-06-16 21:20:00,82.8,76.0,30.04,NW,304,0.0,-999.0,80,0.00,,,1.30,Wunderground v.1.15,2013-06-17 01:20:00,
2013-06-16 21:25:00,82.7,76.3,30.04,NW,304,0.0,-999.0,81,0.00,,,1.30,Wunderground v.1.15,2013-06-17 01:25:00,
2013-06-16 21:30:00,82.6,76.2,30.04,NW,304,0.0,-999.0,81,0.00,,,1.30,Wunderground v.1.15,2013-06-17 01:30:00,
2013-06-16 21:35:00,82.6,76.5,30.04,NW,304,0.0,-999.0,82,0.00,,,1.30,Wunderground v.1.15,2013-06-17 01:35:00,
2013-06-16 21:40:00,82.5,76.4,30.05,NW,304,0.0,-999.0,82,0.00,,,1.30,Wunderground v.1.15,2013-06-17 01:40:00,
2013-06-16 21:45:00,82.4,76.3,30.05,NW,304,0.0,-999.0,82,0.00,,,1.30,Wunderground v.1.15,2013-06-17 01:45:00,
2013-06-16 21:50:00,82.2,76.2,30.05,NW,304,0.0,-999.0,82,0.00,,,1.30,Wunderground v.1.15,2013-06-17 01:50:00,
2013-06-16 22:00:00,81.9,76.6,30.05,NW,304,0.0,-999.0,84,0.00,,,1.30,Wunderground v.1.15,2013-06-17 02:00:00,
2013-06-16 22:05:00,81.8,76.5,30.05,NW,304,0.0,-999.0,84,0.00,,,1.30,Wunderground v.1.15,2013-06-17 02:05:00,
2013-06-16 22:10:00,81.7,76.4,30.06,NW,304,0.0,-999.0,84,0.00,,,1.30,Wunderground v.1.15,2013-06-17 02:10:00,
2013-06-16 22:15:00,81.6,76.6,30.06,NW,304,0.0,-999.0,85,0.00,,,1.30,Wunderground v.1.15,2013-06-17 02:15:00,
2013-06-16 22:20:00,81.5,76.6,30.06,NW,304,0.0,-999.0,85,0.00,,,1.30,Wunderground v.1.15,2013-06-17 02:20:00,
2013-06-16 22:25:00,81.4,76.8,30.07,NW,304,0.0,-999.0,86,0.00,,,1.30,Wunderground v.1.15,2013-06-17 02:25:00,
2013-06-16 22:30:00,81.4,77.2,30.08,NW,304,0.0,-999.0,87,0.00,,,1.30,Wunderground v.1.15,2013-06-17 02:30:00,
2013-06-16 22:40:00,81.4,77.5,30.08,NW,304,0.0,-999.0,88,0.00,,,1.30,Wunderground v.1.15,2013-06-17 02:40:00,
2013-06-16 22:45:00,81.4,77.8,30.08,NNE,14,0.0,-999.0,89,0.00,,,1.30,Wunderground v.1.15,2013-06-17 02:45:00,
2013-06-16 22:55:00,80.9,75.2,30.08,ENE,73,0.0,-999.0,83,0.00,,,1.30,Wunderground v.1.15,2013-06-17 02:55:00,
2013-06-16 23:00:00,80.3,74.7,30.09,East,86,0.0,-999.0,83,0.00,,,1.30,Wunderground v.1.15,2013-06-17 03:00:00,
2013-06-16 23:05:00,79.5,74.6,30.08,East,80,0.0,-999.0,85,0.00,,,1.31,Wunderground v.1.15,2013-06-17 03:05:00,
2013-06-16 23:10:00,78.7,74.5,30.09,ENE,71,0.0,-999.0,87,0.00,,,1.31,Wunderground v.1.15,2013-06-17 03:10:00,
2013-06-16 23:15:00,78.0,74.5,30.09,ENE,76,0.0,-999.0,89,0.30,,,1.33,Wunderground v.1.15,2013-06-17 03:15:00,
2013-06-16 23:25:00,77.0,74.2,30.08,ENE,76,0.0,-999.0,91,0.21,,,1.37,Wunderground v.1.15,2013-06-17 03:25:00,
2013-06-16 23:35:00,76.4,74.2,30.08,ENE,76,0.0,-999.0,93,1.01,,,1.43,Wunderground v.1.15,2013-06-17 03:35:00,
2013-06-16 23:40:00,76.3,74.1,30.08,ENE,75,0.0,-999.0,93,0.30,,,1.47,Wunderground v.1.15,2013-06-17 03:40:00,
2013-06-16 23:45:00,76.3,74.4,30.07,ENE,76,0.0,-999.0,94,0.21,,,1.48,Wunderground v.1.15,2013-06-17 03:45:00,
2013-06-16 23:50:00,76.3,74.4,30.06,ENE,76,0.0,-999.0,94,0.08,,,1.48,Wunderground v.1.15,2013-06-17 03:50:00,